Terminal Aerodrome Forecast
Issued by NWS Chicago, IL

Home | Current Version | Previous Version | Graphics & Text | Print | Product List | Glossary On
Versions: 1 2 3 4 5 6 7 8 9 10 11 12 13 14 15 16 17 18 19 20 21 22 23 24 25 26 27 28 29 30 31 32 33 34 35
000
FTUS43 KLOT 281600 AAB
TAFRFD
TAF AMD
KRFD 281603Z 2816/2912 16012G19KT P6SM SCT120 BKN200
     FM290100 19011KT P6SM BKN090
     FM290600 19007KT 3SM BR SCT010 BKN200=

USA.gov is the U.S. government's official web portal to all federal, state and local government web resources and services.